sensor_id;sensor_type;location;lat;lon;timestamp;pressure;altitude;pressure_sealevel;temperature;humidity
70411;BME280;57832;46.038;11.398;2022-10-30T00:00:30;97870.81;;;8.66;100.00
70411;BME280;57832;46.038;11.398;2022-10-30T00:02:55;97872.38;;;8.80;100.00
70411;BME280;57832;46.038;11.398;2022-10-30T00:05:21;97873.41;;;8.73;100.00
70411;BME280;57832;46.038;11.398;2022-10-30T00:07:47;97870.97;;;8.78;100.00
70411;BME280;57832;46.038;11.398;2022-10-30T00:10:13;97860.53;;;8.78;100.00
70411;BME280;57832;46.038;11.398;2022-10-30T00:12:39;97857.66;;;8.86;100.00
70411;BME280;57832;46.038;11.398;2022-10-30T00:15:05;97852.88;;;8.76;100.00
70411;BME280;57832;46.038;11.398;2022-10-30T00:17:30;97859.53;;;8.72;100.00
70411;BME280;57832;46.038;11.398;2022-10-30T00:19:56;97869.66;;;8.42;100.00
70411;BME280;57832;46.038;11.398;2022-10-30T00:22:22;97863.44;;;8.43;100.00
70411;BME280;57832;46.038;11.398;2022-10-30T00:24:47;97860.16;;;8.67;100.00
70411;BME280;57832;46.038;11.398;2022-10-30T00:27:13;97864.13;;;8.77;100.00
70411;BME280;57832;46.038;11.398;2022-10-30T00:29:38;97858.56;;;8.66;100.00
70411;BME280;57832;46.038;11.398;2022-10-30T00:32:04;97860.22;;;8.47;100.00
70411;BME280;57832;46.038;11.398;2022-10-30T00:34:30;97865.44;;;8.54;100.00
70411;BME280;57832;46.038;11.398;2022-10-30T00:36:55;97859.00;;;8.50;100.00
70411;BME280;57832;46.038;11.398;2022-10-30T00:39:21;97853.19;;;8.48;100.00
70411;BME280;57832;46.038;11.398;2022-10-30T00:41:46;97854.78;;;8.35;100.00
70411;BME280;57832;46.038;11.398;2022-10-30T00:49:58;97849.38;;;8.50;100.00
70411;BME280;57832;46.038;11.398;2022-10-30T00:52:28;97850.94;;;8.58;100.00
70411;BME280;57832;46.038;11.398;2022-10-30T00:54:55;97851.34;;;8.55;100.00
70411;BME280;57832;46.038;11.398;2022-10-30T00:57:21;97848.53;;;8.57;100.00
70411;BME280;57832;46.038;11.398;2022-10-30T00:59:48;97856.41;;;8.30;100.00
70411;BME280;57832;46.038;11.398;2022-10-30T01:02:15;97847.75;;;8.43;100.00
70411;BME280;57832;46.038;11.398;2022-10-30T01:04:42;97851.97;;;8.57;100.00
70411;BME280;57832;46.038;11.398;2022-10-30T01:07:12;97854.97;;;8.47;100.00
70411;BME280;57832;46.038;11.398;2022-10-30T01:09:38;97853.66;;;7.71;100.00
70411;BME280;57832;46.038;11.398;2022-10-30T01:12:05;97858.69;;;7.79;100.00
70411;BME280;57832;46.038;11.398;2022-10-30T01:14:32;97850.22;;;8.17;100.00
70411;BME280;57832;46.038;11.398;2022-10-30T01:25:13;97843.00;;;7.99;100.00
70411;BME280;57832;46.038;11.398;2022-10-30T01:30:56;97834.13;;;8.20;100.00
70411;BME280;57832;46.038;11.398;2022-10-30T01:38:53;97840.19;;;7.47;100.00
70411;BME280;57832;46.038;11.398;2022-10-30T05:43:25;97797.00;;;7.31;100.00
70411;BME280;57832;46.038;11.398;2022-10-30T05:45:51;97803.06;;;7.39;100.00
70411;BME280;57832;46.038;11.398;2022-10-30T05:48:16;97804.47;;;7.34;100.00
70411;BME280;57832;46.038;11.398;2022-10-30T05:50:42;97806.66;;;7.38;100.00
70411;BME280;57832;46.038;11.398;2022-10-30T05:53:08;97812.84;;;7.16;100.00
70411;BME280;57832;46.038;11.398;2022-10-30T05:55:34;97806.84;;;7.23;100.00
70411;BME280;57832;46.038;11.398;2022-10-30T05:58:04;97807.25;;;7.40;100.00
70411;BME280;57832;46.038;11.398;2022-10-30T06:00:33;97816.50;;;7.49;100.00
70411;BME280;57832;46.038;11.398;2022-10-30T06:03:04;97806.88;;;7.43;100.00
70411;BME280;57832;46.038;11.398;2022-10-30T06:05:32;97810.06;;;7.38;100.00
70411;BME280;57832;46.038;11.398;2022-10-30T06:07:58;97814.91;;;7.48;100.00
70411;BME280;57832;46.038;11.398;2022-10-30T06:10:25;97808.06;;;7.27;100.00
70411;BME280;57832;46.038;11.398;2022-10-30T06:13:00;97809.69;;;7.41;100.00
70411;BME280;57832;46.038;11.398;2022-10-30T06:15:26;97814.91;;;7.55;100.00
70411;BME280;57832;46.038;11.398;2022-10-30T06:17:52;97805.88;;;7.44;100.00
70411;BME280;57832;46.038;11.398;2022-10-30T06:20:20;97813.28;;;7.33;100.00
70411;BME280;57832;46.038;11.398;2022-10-30T06:22:53;97814.91;;;7.34;100.00
70411;BME280;57832;46.038;11.398;2022-10-30T06:25:19;97821.72;;;7.49;100.00
70411;BME280;57832;46.038;11.398;2022-10-30T06:27:45;97825.72;;;7.58;100.00
70411;BME280;57832;46.038;11.398;2022-10-30T06:30:10;97820.34;;;7.60;100.00
70411;BME280;57832;46.038;11.398;2022-10-30T06:32:36;97824.72;;;7.66;100.00
70411;BME280;57832;46.038;11.398;2022-10-30T06:35:01;97828.75;;;7.55;100.00
70411;BME280;57832;46.038;11.398;2022-10-30T06:37:27;97833.75;;;7.63;100.00
70411;BME280;57832;46.038;11.398;2022-10-30T06:39:53;97825.34;;;7.75;100.00
70411;BME280;57832;46.038;11.398;2022-10-30T06:42:19;97828.34;;;7.92;100.00
70411;BME280;57832;46.038;11.398;2022-10-30T06:44:44;97821.50;;;7.97;100.00
70411;BME280;57832;46.038;11.398;2022-10-30T06:47:10;97818.44;;;8.14;100.00
70411;BME280;57832;46.038;11.398;2022-10-30T06:49:35;97818.88;;;8.11;100.00
70411;BME280;57832;46.038;11.398;2022-10-30T06:52:01;97820.03;;;8.28;100.00
70411;BME280;57832;46.038;11.398;2022-10-30T06:54:26;97825.69;;;8.25;100.00
70411;BME280;57832;46.038;11.398;2022-10-30T06:56:52;97826.88;;;8.23;100.00
70411;BME280;57832;46.038;11.398;2022-10-30T06:59:17;97828.47;;;8.17;100.00
70411;BME280;57832;46.038;11.398;2022-10-30T07:01:43;97822.25;;;8.18;100.00
70411;BME280;57832;46.038;11.398;2022-10-30T07:04:08;97826.28;;;8.20;100.00
70411;BME280;57832;46.038;11.398;2022-10-30T07:06:34;97830.44;;;8.42;100.00
70411;BME280;57832;46.038;11.398;2022-10-30T07:08:59;97828.47;;;8.37;100.00
70411;BME280;57832;46.038;11.398;2022-10-30T07:11:25;97818.78;;;8.51;100.00
70411;BME280;57832;46.038;11.398;2022-10-30T07:13:51;97829.03;;;8.52;100.00
70411;BME280;57832;46.038;11.398;2022-10-30T07:16:16;97829.19;;;8.64;100.00
70411;BME280;57832;46.038;11.398;2022-10-30T07:18:42;97832.03;;;8.56;100.00
70411;BME280;57832;46.038;11.398;2022-10-30T07:21:07;97838.88;;;8.57;100.00
70411;BME280;57832;46.038;11.398;2022-10-30T07:23:33;97838.50;;;8.47;100.00
70411;BME280;57832;46.038;11.398;2022-10-30T07:25:58;97840.44;;;8.65;100.00
70411;BME280;57832;46.038;11.398;2022-10-30T07:28:24;97842.97;;;8.85;100.00
70411;BME280;57832;46.038;11.398;2022-10-30T07:30:49;97840.34;;;8.85;100.00
70411;BME280;57832;46.038;11.398;2022-10-30T07:33:15;97836.69;;;8.41;100.00
70411;BME280;57832;46.038;11.398;2022-10-30T07:35:40;97836.53;;;8.22;100.00
70411;BME280;57832;46.038;11.398;2022-10-30T07:38:09;97838.16;;;8.03;100.00
70411;BME280;57832;46.038;11.398;2022-10-30T07:40:35;97838.28;;;8.48;100.00
70411;BME280;57832;46.038;11.398;2022-10-30T07:43:02;97836.44;;;8.69;100.00
70411;BME280;57832;46.038;11.398;2022-10-30T07:45:28;97832.84;;;8.57;100.00
70411;BME280;57832;46.038;11.398;2022-10-30T07:47:54;97830.00;;;8.58;100.00
70411;BME280;57832;46.038;11.398;2022-10-30T07:50:20;97836.13;;;8.25;100.00
70411;BME280;57832;46.038;11.398;2022-10-30T07:52:46;97835.09;;;8.53;100.00
70411;BME280;57832;46.038;11.398;2022-10-30T07:55:12;97838.09;;;8.50;100.00
70411;BME280;57832;46.038;11.398;2022-10-30T07:57:39;97835.69;;;8.42;100.00
70411;BME280;57832;46.038;11.398;2022-10-30T08:00:07;97837.03;;;8.64;100.00
70411;BME280;57832;46.038;11.398;2022-10-30T08:02:33;97835.06;;;8.60;100.00
70411;BME280;57832;46.038;11.398;2022-10-30T08:04:58;97830.13;;;8.77;100.00
70411;BME280;57832;46.038;11.398;2022-10-30T08:07:31;97831.22;;;9.08;100.00
70411;BME280;57832;46.038;11.398;2022-10-30T08:09:57;97827.94;;;9.12;100.00
70411;BME280;57832;46.038;11.398;2022-10-30T08:12:23;97826.66;;;9.28;100.00
70411;BME280;57832;46.038;11.398;2022-10-30T08:14:48;97822.16;;;9.35;100.00
70411;BME280;57832;46.038;11.398;2022-10-30T08:17:14;97819.97;;;9.32;100.00
70411;BME280;57832;46.038;11.398;2022-10-30T08:19:39;97826.00;;;9.58;100.00
70411;BME280;57832;46.038;11.398;2022-10-30T08:22:05;97822.31;;;9.41;100.00
70411;BME280;57832;46.038;11.398;2022-10-30T08:24:31;97822.59;;;9.58;100.00
70411;BME280;57832;46.038;11.398;2022-10-30T08:26:56;97821.81;;;9.57;100.00
70411;BME280;57832;46.038;11.398;2022-10-30T08:29:22;97816.75;;;9.62;100.00
70411;BME280;57832;46.038;11.398;2022-10-30T08:31:48;97812.50;;;9.61;100.00
70411;BME280;57832;46.038;11.398;2022-10-30T08:34:13;97816.47;;;9.70;100.00
70411;BME280;57832;46.038;11.398;2022-10-30T08:36:39;97810.13;;;9.60;100.00
70411;BME280;57832;46.038;11.398;2022-10-30T08:39:04;97817.09;;;9.91;100.00
70411;BME280;57832;46.038;11.398;2022-10-30T08:41:30;97812.28;;;9.88;100.00
70411;BME280;57832;46.038;11.398;2022-10-30T08:43:55;97810.28;;;9.83;100.00
70411;BME280;57832;46.038;11.398;2022-10-30T08:46:21;97805.91;;;10.02;100.00
70411;BME280;57832;46.038;11.398;2022-10-30T08:48:46;97805.31;;;10.19;100.00
70411;BME280;57832;46.038;11.398;2022-10-30T08:51:12;97801.84;;;10.25;100.00
70411;BME280;57832;46.038;11.398;2022-10-30T08:53:38;97797.03;;;10.41;100.00
70411;BME280;57832;46.038;11.398;2022-10-30T08:56:04;97799.69;;;10.34;100.00
70411;BME280;57832;46.038;11.398;2022-10-30T08:58:30;97803.38;;;10.51;100.00
70411;BME280;57832;46.038;11.398;2022-10-30T09:00:55;97796.16;;;10.65;100.00
70411;BME280;57832;46.038;11.398;2022-10-30T09:03:21;97803.25;;;10.77;100.00
70411;BME280;57832;46.038;11.398;2022-10-30T09:05:47;97794.41;;;10.90;100.00
70411;BME280;57832;46.038;11.398;2022-10-30T09:08:12;97797.91;;;11.14;100.00
70411;BME280;57832;46.038;11.398;2022-10-30T09:10:38;97791.59;;;11.03;100.00
70411;BME280;57832;46.038;11.398;2022-10-30T09:13:03;97787.63;;;11.12;100.00
70411;BME280;57832;46.038;11.398;2022-10-30T09:15:29;97768.63;;;12.64;100.00
70411;BME280;57832;46.038;11.398;2022-10-30T09:17:58;97753.66;;;14.23;100.00
70411;BME280;57832;46.038;11.398;2022-10-30T09:20:24;97745.53;;;15.71;100.00
70411;BME280;57832;46.038;11.398;2022-10-30T09:22:50;97730.34;;;16.88;100.00
70411;BME280;57832;46.038;11.398;2022-10-30T09:25:16;97717.81;;;19.02;100.00
70411;BME280;57832;46.038;11.398;2022-10-30T09:27:42;97724.38;;;23.30;100.00
70411;BME280;57832;46.038;11.398;2022-10-30T09:30:07;97713.38;;;27.39;85.79
70411;BME280;57832;46.038;11.398;2022-10-30T09:32:33;97700.22;;;25.60;93.15
70411;BME280;57832;46.038;11.398;2022-10-30T09:34:59;97711.00;;;22.20;100.00
70411;BME280;57832;46.038;11.398;2022-10-30T09:37:24;97702.66;;;19.32;100.00
70411;BME280;57832;46.038;11.398;2022-10-30T09:39:51;97705.69;;;19.50;100.00
70411;BME280;57832;46.038;11.398;2022-10-30T09:50:50;97695.91;;;21.27;100.00
70411;BME280;57832;46.038;11.398;2022-10-30T09:56:43;97691.97;;;21.99;100.00
70411;BME280;57832;46.038;11.398;2022-10-30T10:02:00;97687.22;;;26.30;80.44
70411;BME280;57832;46.038;11.398;2022-10-30T10:04:41;97688.84;;;26.44;62.22
70411;BME280;57832;46.038;11.398;2022-10-30T10:07:25;97688.88;;;23.47;83.60
70411;BME280;57832;46.038;11.398;2022-10-30T10:09:56;97680.94;;;21.31;100.00
70411;BME280;57832;46.038;11.398;2022-10-30T10:15:45;97676.22;;;21.56;100.00
70411;BME280;57832;46.038;11.398;2022-10-30T10:18:42;97670.81;;;21.28;100.00
70411;BME280;57832;46.038;11.398;2022-10-30T10:21:17;97671.28;;;23.01;100.00
70411;BME280;57832;46.038;11.398;2022-10-30T10:23:50;97660.84;;;22.31;100.00
70411;BME280;57832;46.038;11.398;2022-10-30T10:45:32;97619.84;;;23.35;72.91
70411;BME280;57832;46.038;11.398;2022-10-30T10:51:03;97620.19;;;23.92;67.07
70411;BME280;57832;46.038;11.398;2022-10-30T10:53:53;97620.38;;;23.46;70.06
70411;BME280;57832;46.038;11.398;2022-10-30T10:56:23;97611.38;;;24.00;74.55
70411;BME280;57832;46.038;11.398;2022-10-30T10:58:54;97609.06;;;25.16;67.93
70411;BME280;57832;46.038;11.398;2022-10-30T11:01:28;97606.53;;;26.30;58.17
70411;BME280;57832;46.038;11.398;2022-10-30T11:06:41;97601.16;;;28.21;46.82
70411;BME280;57832;46.038;11.398;2022-10-30T11:09:19;97596.06;;;29.21;46.49
70411;BME280;57832;46.038;11.398;2022-10-30T11:11:50;97589.97;;;26.07;48.64
70411;BME280;57832;46.038;11.398;2022-10-30T11:14:24;97598.56;;;24.93;53.76
70411;BME280;57832;46.038;11.398;2022-10-30T11:19:38;97581.28;;;24.29;56.70
70411;BME280;57832;46.038;11.398;2022-10-30T11:22:07;97572.53;;;23.62;63.72
70411;BME280;57832;46.038;11.398;2022-10-30T11:24:37;97573.19;;;24.82;60.36
70411;BME280;57832;46.038;11.398;2022-10-30T11:27:17;97569.44;;;24.39;59.97
70411;BME280;57832;46.038;11.398;2022-10-30T11:32:21;97563.19;;;25.68;58.27
70411;BME280;57832;46.038;11.398;2022-10-30T11:37:30;97553.47;;;29.65;44.61
70411;BME280;57832;46.038;11.398;2022-10-30T11:40:16;97546.13;;;29.14;41.13
70411;BME280;57832;46.038;11.398;2022-10-30T11:45:23;97548.66;;;25.40;48.82
70411;BME280;57832;46.038;11.398;2022-10-30T11:47:50;97544.63;;;24.77;54.92
70411;BME280;57832;46.038;11.398;2022-10-30T11:50:20;97538.06;;;25.04;52.67
70411;BME280;57832;46.038;11.398;2022-10-30T11:52:48;97532.13;;;25.29;53.99
70411;BME280;57832;46.038;11.398;2022-10-30T11:55:34;97525.50;;;25.26;55.76
70411;BME280;57832;46.038;11.398;2022-10-30T11:58:01;97526.50;;;24.74;59.41
70411;BME280;57832;46.038;11.398;2022-10-30T12:00:31;97524.03;;;24.43;59.02
70411;BME280;57832;46.038;11.398;2022-10-30T12:02:59;97519.28;;;24.66;58.73
70411;BME280;57832;46.038;11.398;2022-10-30T12:05:40;97517.66;;;24.74;60.54
70411;BME280;57832;46.038;11.398;2022-10-30T12:10:31;97502.53;;;25.08;56.96
70411;BME280;57832;46.038;11.398;2022-10-30T12:13:03;97506.78;;;24.61;54.10
70411;BME280;57832;46.038;11.398;2022-10-30T12:15:32;97494.81;;;24.59;58.11
70411;BME280;57832;46.038;11.398;2022-10-30T12:18:05;97498.06;;;23.99;63.39
70411;BME280;57832;46.038;11.398;2022-10-30T12:20:32;97493.22;;;25.05;59.29
70411;BME280;57832;46.038;11.398;2022-10-30T12:23:08;97491.81;;;25.08;56.48
70411;BME280;57832;46.038;11.398;2022-10-30T12:25:35;97492.75;;;25.03;57.54
70411;BME280;57832;46.038;11.398;2022-10-30T12:28:17;97486.34;;;24.95;57.63
70411;BME280;57832;46.038;11.398;2022-10-30T12:33:38;97477.53;;;24.30;61.98
70411;BME280;57832;46.038;11.398;2022-10-30T12:36:13;97469.28;;;24.52;63.97
70411;BME280;57832;46.038;11.398;2022-10-30T12:41:55;97474.22;;;24.33;69.28
70411;BME280;57832;46.038;11.398;2022-10-30T12:44:29;97469.97;;;24.23;67.08
70411;BME280;57832;46.038;11.398;2022-10-30T12:47:08;97469.97;;;24.23;64.59
70411;BME280;57832;46.038;11.398;2022-10-30T12:49:45;97469.63;;;24.33;64.82
70411;BME280;57832;46.038;11.398;2022-10-30T12:55:25;97454.88;;;23.75;58.75
70411;BME280;57832;46.038;11.398;2022-10-30T12:58:01;97461.75;;;24.28;56.38
70411;BME280;57832;46.038;11.398;2022-10-30T13:00:34;97457.25;;;23.94;61.43
70411;BME280;57832;46.038;11.398;2022-10-30T13:06:06;97453.31;;;23.91;64.69
70411;BME280;57832;46.038;11.398;2022-10-30T13:08:43;97441.81;;;23.99;64.02
70411;BME280;57832;46.038;11.398;2022-10-30T13:11:39;97440.03;;;24.12;69.11
70411;BME280;57832;46.038;11.398;2022-10-30T13:16:57;97436.44;;;23.73;62.32
70411;BME280;57832;46.038;11.398;2022-10-30T13:19:22;97430.63;;;23.71;61.55
70411;BME280;57832;46.038;11.398;2022-10-30T13:22:10;97430.00;;;23.74;61.81
70411;BME280;57832;46.038;11.398;2022-10-30T13:27:10;97430.00;;;23.30;72.59
70411;BME280;57832;46.038;11.398;2022-10-30T13:29:44;97426.28;;;23.00;68.20
70411;BME280;57832;46.038;11.398;2022-10-30T13:35:08;97417.94;;;23.01;61.35
70411;BME280;57832;46.038;11.398;2022-10-30T13:38:15;97421.38;;;22.93;60.54
70411;BME280;57832;46.038;11.398;2022-10-30T13:41:21;97417.91;;;22.84;62.95
70411;BME280;57832;46.038;11.398;2022-10-30T13:52:34;97417.50;;;22.59;73.70
70411;BME280;57832;46.038;11.398;2022-10-30T13:55:15;97415.91;;;22.49;73.38
70411;BME280;57832;46.038;11.398;2022-10-30T14:00:52;97419.09;;;22.29;90.16
70411;BME280;57832;46.038;11.398;2022-10-30T14:06:20;97416.00;;;22.13;100.00
70411;BME280;57832;46.038;11.398;2022-10-30T14:09:05;97415.63;;;22.05;100.00
70411;BME280;57832;46.038;11.398;2022-10-30T14:11:34;97409.56;;;21.91;100.00
70411;BME280;57832;46.038;11.398;2022-10-30T14:14:03;97412.31;;;21.77;100.00
70411;BME280;57832;46.038;11.398;2022-10-30T14:16:40;97411.78;;;21.52;100.00
70411;BME280;57832;46.038;11.398;2022-10-30T14:19:08;97417.31;;;21.19;100.00
70411;BME280;57832;46.038;11.398;2022-10-30T14:24:19;97409.63;;;21.04;100.00
70411;BME280;57832;46.038;11.398;2022-10-30T14:26:47;97406.97;;;20.62;100.00
70411;BME280;57832;46.038;11.398;2022-10-30T14:39:48;97415.88;;;19.40;100.00
70411;BME280;57832;46.038;11.398;2022-10-30T14:45:25;97415.84;;;19.01;100.00
70411;BME280;57832;46.038;11.398;2022-10-30T14:53:33;97419.31;;;18.48;100.00
70411;BME280;57832;46.038;11.398;2022-10-30T14:59:39;97420.31;;;18.28;100.00
70411;BME280;57832;46.038;11.398;2022-10-30T15:15:13;97440.19;;;17.17;100.00
70411;BME280;57832;46.038;11.398;2022-10-30T15:17:42;97436.31;;;16.83;100.00
70411;BME280;57832;46.038;11.398;2022-10-30T15:20:18;97430.50;;;16.76;100.00
70411;BME280;57832;46.038;11.398;2022-10-30T15:22:47;97442.13;;;16.75;100.00
70411;BME280;57832;46.038;11.398;2022-10-30T15:25:22;97441.97;;;16.25;100.00
70411;BME280;57832;46.038;11.398;2022-10-30T15:27:51;97441.72;;;16.16;100.00
70411;BME280;57832;46.038;11.398;2022-10-30T15:30:23;97455.22;;;16.04;100.00
70411;BME280;57832;46.038;11.398;2022-10-30T15:32:49;97448.88;;;15.85;100.00
70411;BME280;57832;46.038;11.398;2022-10-30T15:35:20;97451.50;;;16.05;100.00
70411;BME280;57832;46.038;11.398;2022-10-30T15:38:05;97452.78;;;15.72;100.00
70411;BME280;57832;46.038;11.398;2022-10-30T15:40:36;97445.97;;;15.92;100.00
70411;BME280;57832;46.038;11.398;2022-10-30T15:43:04;97440.13;;;15.84;100.00
70411;BME280;57832;46.038;11.398;2022-10-30T15:48:11;97459.59;;;15.37;100.00
70411;BME280;57832;46.038;11.398;2022-10-30T15:50:44;97461.78;;;14.92;100.00
70411;BME280;57832;46.038;11.398;2022-10-30T15:53:17;97466.44;;;14.69;100.00
70411;BME280;57832;46.038;11.398;2022-10-30T15:55:43;97470.25;;;14.94;100.00
70411;BME280;57832;46.038;11.398;2022-10-30T15:58:14;97467.66;;;14.62;100.00
70411;BME280;57832;46.038;11.398;2022-10-30T16:00:56;97477.13;;;14.15;100.00
70411;BME280;57832;46.038;11.398;2022-10-30T16:03:22;97481.88;;;14.18;100.00
70411;BME280;57832;46.038;11.398;2022-10-30T16:05:48;97482.97;;;14.22;100.00
70411;BME280;57832;46.038;11.398;2022-10-30T16:08:19;97483.88;;;14.38;100.00
70411;BME280;57832;46.038;11.398;2022-10-30T16:10:45;97491.78;;;14.38;100.00
70411;BME280;57832;46.038;11.398;2022-10-30T16:13:31;97490.97;;;14.32;100.00
70411;BME280;57832;46.038;11.398;2022-10-30T16:15:59;97503.44;;;13.55;100.00
70411;BME280;57832;46.038;11.398;2022-10-30T16:18:29;97509.53;;;13.56;100.00
70411;BME280;57832;46.038;11.398;2022-10-30T16:20:59;97510.81;;;13.80;100.00
70411;BME280;57832;46.038;11.398;2022-10-30T16:23:27;97506.13;;;13.60;100.00
70411;BME280;57832;46.038;11.398;2022-10-30T16:25:57;97519.97;;;13.28;100.00
70411;BME280;57832;46.038;11.398;2022-10-30T16:28:35;97514.69;;;13.45;100.00
70411;BME280;57832;46.038;11.398;2022-10-30T16:31:05;97518.91;;;12.85;100.00
70411;BME280;57832;46.038;11.398;2022-10-30T16:33:34;97519.56;;;13.36;100.00
70411;BME280;57832;46.038;11.398;2022-10-30T16:36:03;97528.25;;;12.76;100.00
70411;BME280;57832;46.038;11.398;2022-10-30T16:38:33;97524.81;;;13.14;100.00
70411;BME280;57832;46.038;11.398;2022-10-30T16:41:05;97523.03;;;13.20;100.00
70411;BME280;57832;46.038;11.398;2022-10-30T16:43:32;97525.13;;;12.79;100.00
70411;BME280;57832;46.038;11.398;2022-10-30T16:48:57;97530.88;;;12.76;100.00
70411;BME280;57832;46.038;11.398;2022-10-30T16:51:25;97530.78;;;12.36;100.00
70411;BME280;57832;46.038;11.398;2022-10-30T16:53:51;97533.84;;;12.45;100.00
70411;BME280;57832;46.038;11.398;2022-10-30T16:56:28;97544.75;;;12.54;100.00
70411;BME280;57832;46.038;11.398;2022-10-30T16:59:13;97544.16;;;12.18;100.00
70411;BME280;57832;46.038;11.398;2022-10-30T17:01:39;97547.63;;;12.52;100.00
70411;BME280;57832;46.038;11.398;2022-10-30T17:04:05;97548.50;;;12.41;100.00
70411;BME280;57832;46.038;11.398;2022-10-30T17:06:39;97551.63;;;12.55;100.00
70411;BME280;57832;46.038;11.398;2022-10-30T17:09:17;97557.66;;;12.21;100.00
70411;BME280;57832;46.038;11.398;2022-10-30T17:11:47;97560.19;;;12.16;100.00
70411;BME280;57832;46.038;11.398;2022-10-30T17:14:24;97560.75;;;12.35;100.00
70411;BME280;57832;46.038;11.398;2022-10-30T17:16:54;97566.19;;;12.46;100.00
70411;BME280;57832;46.038;11.398;2022-10-30T17:19:45;97557.75;;;12.44;100.00
70411;BME280;57832;46.038;11.398;2022-10-30T17:22:15;97565.41;;;11.99;100.00
70411;BME280;57832;46.038;11.398;2022-10-30T17:24:41;97576.94;;;12.27;100.00
70411;BME280;57832;46.038;11.398;2022-10-30T17:29:51;97575.91;;;12.28;100.00
70411;BME280;57832;46.038;11.398;2022-10-30T17:32:26;97571.28;;;12.18;100.00
70411;BME280;57832;46.038;11.398;2022-10-30T17:35:12;97583.81;;;11.99;100.00
70411;BME280;57832;46.038;11.398;2022-10-30T17:37:38;97592.38;;;11.54;100.00
70411;BME280;57832;46.038;11.398;2022-10-30T17:40:04;97591.09;;;11.68;100.00
70411;BME280;57832;46.038;11.398;2022-10-30T17:42:29;97600.75;;;11.27;100.00
70411;BME280;57832;46.038;11.398;2022-10-30T17:44:55;97605.75;;;11.52;100.00
70411;BME280;57832;46.038;11.398;2022-10-30T17:47:20;97610.19;;;11.64;100.00
70411;BME280;57832;46.038;11.398;2022-10-30T17:49:46;97602.59;;;11.79;100.00
70411;BME280;57832;46.038;11.398;2022-10-30T17:52:15;97607.16;;;11.84;100.00
70411;BME280;57832;46.038;11.398;2022-10-30T17:54:42;97609.19;;;11.94;100.00
70411;BME280;57832;46.038;11.398;2022-10-30T17:57:12;97610.69;;;12.01;100.00
70411;BME280;57832;46.038;11.398;2022-10-30T17:59:38;97619.03;;;11.98;100.00
70411;BME280;57832;46.038;11.398;2022-10-30T18:02:15;97610.03;;;11.82;100.00
70411;BME280;57832;46.038;11.398;2022-10-30T18:04:41;97614.59;;;11.75;100.00
70411;BME280;57832;46.038;11.398;2022-10-30T18:07:11;97612.00;;;11.63;100.00
70411;BME280;57832;46.038;11.398;2022-10-30T18:09:37;97621.16;;;11.61;100.00
70411;BME280;57832;46.038;11.398;2022-10-30T18:12:03;97631.91;;;11.59;100.00
70411;BME280;57832;46.038;11.398;2022-10-30T18:14:29;97628.28;;;11.36;100.00
70411;BME280;57832;46.038;11.398;2022-10-30T18:16:55;97634.34;;;11.37;100.00
70411;BME280;57832;46.038;11.398;2022-10-30T18:19:20;97634.31;;;11.49;100.00
70411;BME280;57832;46.038;11.398;2022-10-30T18:21:46;97638.88;;;11.53;100.00
70411;BME280;57832;46.038;11.398;2022-10-30T18:24:13;97632.59;;;11.66;100.00
70411;BME280;57832;46.038;11.398;2022-10-30T18:26:39;97632.25;;;11.39;100.00
70411;BME280;57832;46.038;11.398;2022-10-30T18:29:05;97633.28;;;11.50;100.00
70411;BME280;57832;46.038;11.398;2022-10-30T18:31:31;97641.06;;;11.09;100.00
70411;BME280;57832;46.038;11.398;2022-10-30T18:33:57;97640.03;;;11.22;100.00
70411;BME280;57832;46.038;11.398;2022-10-30T18:36:23;97635.84;;;11.21;100.00
70411;BME280;57832;46.038;11.398;2022-10-30T18:38:49;97638.78;;;11.25;100.00
70411;BME280;57832;46.038;11.398;2022-10-30T18:41:36;97635.25;;;11.19;100.00
70411;BME280;57832;46.038;11.398;2022-10-30T18:44:03;97640.97;;;11.04;100.00
70411;BME280;57832;46.038;11.398;2022-10-30T18:46:30;97644.38;;;11.16;100.00
70411;BME280;57832;46.038;11.398;2022-10-30T18:48:57;97638.66;;;11.19;100.00
70411;BME280;57832;46.038;11.398;2022-10-30T18:51:25;97646.09;;;11.11;100.00
70411;BME280;57832;46.038;11.398;2022-10-30T18:53:51;97651.56;;;10.97;100.00
70411;BME280;57832;46.038;11.398;2022-10-30T18:56:19;97648.47;;;11.00;100.00
70411;BME280;57832;46.038;11.398;2022-10-30T18:58:44;97644.50;;;11.10;100.00
70411;BME280;57832;46.038;11.398;2022-10-30T19:01:12;97651.09;;;11.00;100.00
70411;BME280;57832;46.038;11.398;2022-10-30T19:03:37;97658.84;;;10.83;100.00
70411;BME280;57832;46.038;11.398;2022-10-30T19:06:03;97660.66;;;10.83;100.00
70411;BME280;57832;46.038;11.398;2022-10-30T19:08:28;97649.06;;;10.91;100.00
70411;BME280;57832;46.038;11.398;2022-10-30T19:10:54;97650.53;;;10.86;100.00
70411;BME280;57832;46.038;11.398;2022-10-30T19:13:22;97665.25;;;10.99;100.00
70411;BME280;57832;46.038;11.398;2022-10-30T19:15:52;97654.75;;;10.99;100.00
70411;BME280;57832;46.038;11.398;2022-10-30T19:18:19;97662.28;;;10.84;100.00
70411;BME280;57832;46.038;11.398;2022-10-30T19:20:52;97667.63;;;10.77;100.00
70411;BME280;57832;46.038;11.398;2022-10-30T19:23:21;97665.31;;;10.81;100.00
70411;BME280;57832;46.038;11.398;2022-10-30T19:25:48;97664.78;;;10.79;100.00
70411;BME280;57832;46.038;11.398;2022-10-30T19:28:15;97661.78;;;10.75;100.00
70411;BME280;57832;46.038;11.398;2022-10-30T19:30:41;97665.06;;;10.59;100.00
70411;BME280;57832;46.038;11.398;2022-10-30T19:33:09;97668.38;;;10.66;100.00
70411;BME280;57832;46.038;11.398;2022-10-30T19:35:35;97671.88;;;10.48;100.00
70411;BME280;57832;46.038;11.398;2022-10-30T19:38:00;97665.69;;;10.42;100.00